Time;durP1;ratioP1;P1;durP2;ratioP2;P2;SDS_P1;SDS_P2;PMS_P1;PMS_P2;Temp;Humidity;BMP_temperature;BMP_pressure;BME280_temperature;BME280_humidity;BME280_pressure;Samples;Min_cycle;Max_cycle;Signal;HPM_P1;HPM_P2
2022/07/31 00:01:54;;;;;;;5.07;2.90;;;;;;;18.45;nan;101621.63;5034358;28;20099;-61
2022/07/31 00:04:22;;;;;;;3.35;2.85;;;;;;;18.68;nan;101655.09;5032861;28;20476;-60
2022/07/31 00:06:47;;;;;;;3.67;2.40;;;;;;;18.69;nan;101655.97;5033911;28;20464;-61
2022/07/31 00:09:13;;;;;;;5.28;2.55;;;;;;;18.46;nan;101619.81;5033674;28;20117;-61
2022/07/31 00:11:40;;;;;;;4.30;3.03;;;;;;;18.41;nan;101620.06;5048828;28;20150;-62
2022/07/31 00:14:05;;;;;;;5.65;3.88;;;;;;;18.70;nan;101655.03;5032406;28;20049;-61
2022/07/31 00:16:31;;;;;;;6.80;2.95;;;;;;;18.69;nan;101658.63;5033619;28;20084;-60
2022/07/31 00:18:56;;;;;;;4.82;2.80;;;;;;;18.69;nan;101648.81;5033411;28;20037;-62
2022/07/31 00:21:21;;;;;;;9.05;3.88;;;;;;;18.15;nan;101561.06;5033711;28;20156;-61
2022/07/31 00:23:46;;;;;;;4.05;3.00;;;;;;;18.33;nan;101597.44;5033459;28;20400;-61
2022/07/31 00:26:12;;;;;;;5.30;3.17;;;;;;;18.30;nan;101585.09;5033227;28;20071;-61
2022/07/31 00:28:37;;;;;;;4.30;3.10;;;;;;;18.54;nan;101623.84;5031771;28;20144;-63
2022/07/31 00:31:03;;;;;;;7.65;3.60;;;;;;;18.57;nan;101640.59;5033511;28;20037;-61
2022/07/31 00:33:28;;;;;;;5.35;3.15;;;;;;;18.15;nan;101567.28;5033494;28;20038;-62
2022/07/31 00:35:53;;;;;;;5.85;3.45;;;;;;;18.53;nan;101640.75;5032236;28;20034;-61
2022/07/31 00:38:19;;;;;;;4.50;2.90;;;;;;;18.53;nan;101634.59;5048643;28;20033;-60
2022/07/31 00:40:46;;;;;;;4.22;3.00;;;;;;;18.45;nan;101626.94;5033132;28;20037;-61
2022/07/31 00:43:13;;;;;;;4.40;3.22;;;;;;;18.48;nan;101631.25;5033003;28;20037;-62
2022/07/31 00:45:38;;;;;;;6.22;3.67;;;;;;;18.47;nan;101627.75;5033152;28;20064;-63
2022/07/31 00:48:04;;;;;;;5.35;3.55;;;;;;;18.48;nan;101626.81;5033003;28;20131;-62
2022/07/31 00:50:29;;;;;;;5.47;3.38;;;;;;;18.18;nan;101567.13;5031794;28;20077;-61
2022/07/31 00:52:55;;;;;;;5.60;2.95;;;;;;;18.46;nan;101603.81;5033230;28;20037;-63
2022/07/31 00:55:21;;;;;;;7.90;4.30;;;;;;;18.54;nan;101615.84;5032752;28;20384;-63
2022/07/31 00:57:46;;;;;;;7.05;3.38;;;;;;;18.59;nan;101609.41;5032667;28;20393;-61
2022/07/31 01:00:12;;;;;;;9.68;3.58;;;;;;;18.61;nan;101595.06;5031495;28;20042;-61
2022/07/31 01:02:38;;;;;;;7.70;3.97;;;;;;;18.65;nan;101598.41;5032827;28;20033;-62
2022/07/31 01:05:04;;;;;;;9.02;4.07;;;;;;;18.71;nan;101598.09;5031672;28;20129;-62
2022/07/31 01:07:29;;;;;;;8.50;3.08;;;;;;;18.74;nan;101587.25;5032599;28;20034;-62
2022/07/31 01:09:54;;;;;;;4.65;2.97;;;;;;;18.79;nan;101587.84;5031388;28;20516;-61
2022/07/31 01:12:26;;;;;;;4.68;3.13;;;;;;;18.79;nan;101594.06;5031345;28;20067;-62
2022/07/31 01:14:53;;;;;;;11.82;3.20;;;;;;;18.75;nan;101583.63;5031505;28;20029;-61
2022/07/31 01:17:21;;;;;;;5.38;2.95;;;;;;;18.82;nan;101593.91;5031235;28;20384;-61
2022/07/31 01:19:47;;;;;;;5.57;2.75;;;;;;;18.84;nan;101597.34;5031258;28;20021;-62
2022/07/31 01:22:16;;;;;;;5.68;2.78;;;;;;;18.90;nan;101609.47;5031439;28;20037;-60
2022/07/31 01:24:59;;;;;;;7.63;3.85;;;;;;;18.91;nan;101589.84;5032424;28;20044;-62
2022/07/31 01:27:36;;;;;;;6.55;3.80;;;;;;;18.64;nan;101533.56;5031351;28;20075;-61
2022/07/31 01:30:03;;;;;;;5.68;3.28;;;;;;;18.65;nan;101527.25;5030883;28;20057;-62
2022/07/31 01:32:32;;;;;;;4.90;3.63;;;;;;;18.94;nan;101571.00;5032241;28;20545;-61
2022/07/31 01:35:02;;;;;;;7.65;3.40;;;;;;;19.03;nan;101599.88;5032379;28;20400;-61
2022/07/31 01:37:41;;;;;;;7.43;3.08;;;;;;;19.05;nan;101590.81;5031068;28;20384;-61
2022/07/31 01:40:08;;;;;;;9.27;3.83;;;;;;;18.74;nan;101515.25;5031051;28;20030;-60
2022/07/31 01:42:36;;;;;;;6.63;3.40;;;;;;;19.02;nan;101566.09;5032061;28;20037;-61
2022/07/31 01:45:03;;;;;;;6.32;3.38;;;;;;;19.06;nan;101570.31;5031021;28;20029;-62
2022/07/31 01:47:29;;;;;;;6.03;2.83;;;;;;;18.73;nan;101505.50;5032207;28;20029;-61
2022/07/31 01:49:57;;;;;;;4.82;3.08;;;;;;;19.04;nan;101557.06;5030919;28;20061;-61
2022/07/31 01:52:25;;;;;;;7.57;3.28;;;;;;;18.79;nan;101529.19;5031954;28;20552;-62
2022/07/31 01:54:52;;;;;;;5.65;3.05;;;;;;;18.91;nan;101557.84;5030661;28;20108;-61
2022/07/31 01:57:19;;;;;;;5.18;2.65;;;;;;;18.62;nan;101502.59;5030859;28;20037;-59
2022/07/31 01:59:45;;;;;;;6.88;3.20;;;;;;;18.92;nan;101568.41;5031221;28;20480;-62
2022/07/31 02:02:11;;;;;;;4.75;2.97;;;;;;;18.78;nan;101538.97;5034802;28;20393;-61
2022/07/31 02:04:37;;;;;;;5.68;2.97;;;;;;;18.86;nan;101549.22;5034790;28;20034;-60
2022/07/31 02:07:03;;;;;;;5.68;3.10;;;;;;;18.58;nan;101501.88;5036257;28;20038;-61
2022/07/31 02:09:31;;;;;;;7.20;3.17;;;;;;;18.85;nan;101542.19;5036086;28;20037;-61
2022/07/31 02:11:57;;;;;;;4.40;2.92;;;;;;;18.87;nan;101540.28;5034729;28;20037;-60
2022/07/31 02:14:23;;;;;;;4.40;3.00;;;;;;;18.58;nan;101483.22;5034711;28;20030;-62
2022/07/31 02:16:49;;;;;;;8.20;3.38;;;;;;;18.57;nan;101484.16;5036340;28;20087;-62
2022/07/31 02:19:15;;;;;;;6.30;2.55;;;;;;;18.86;nan;101538.53;5034683;28;20443;-60
2022/07/31 02:21:40;;;;;;;5.18;3.05;;;;;;;18.80;nan;101520.22;5034726;28;20472;-62
2022/07/31 02:24:06;;;;;;;5.90;3.13;;;;;;;18.57;nan;101475.28;5034736;28;20477;-60
2022/07/31 02:26:32;;;;;;;7.90;3.00;;;;;;;18.87;nan;101527.81;5034515;28;20118;-61
2022/07/31 02:28:58;;;;;;;5.43;3.33;;;;;;;18.89;nan;101531.25;5034480;28;20477;-61
2022/07/31 02:31:24;;;;;;;6.95;2.90;;;;;;;18.55;nan;101462.06;5034417;28;20527;-61
2022/07/31 02:33:50;;;;;;;6.13;3.00;;;;;;;18.63;nan;101474.97;5034379;28;20128;-61
2022/07/31 02:36:17;;;;;;;6.43;3.38;;;;;;;18.67;nan;101485.38;5035757;28;20025;-60
2022/07/31 02:38:42;;;;;;;5.07;3.45;;;;;;;18.88;nan;101526.88;5034401;28;20069;-61
2022/07/31 02:41:08;;;;;;;6.78;3.42;;;;;;;18.89;nan;101509.03;5034065;28;20419;-62
2022/07/31 02:43:34;;;;;;;5.82;3.17;;;;;;;18.52;nan;101454.25;5034168;28;20030;-62
2022/07/31 02:46:00;;;;;;;5.78;3.40;;;;;;;18.54;nan;101471.88;5034069;28;20044;-61
2022/07/31 02:48:26;;;;;;;6.95;3.17;;;;;;;18.78;nan;101511.44;5035248;28;20033;-61
2022/07/31 02:50:51;;;;;;;4.68;3.42;;;;;;;18.25;nan;101421.06;5034014;28;20219;-61
2022/07/31 02:53:17;;;;;;;5.40;3.70;;;;;;;18.50;nan;101467.63;5033835;28;20065;-62
2022/07/31 02:55:44;;;;;;;7.13;3.50;;;;;;;18.54;nan;101461.19;5033946;28;20064;-61
2022/07/31 02:58:11;;;;;;;7.50;3.67;;;;;;;18.83;nan;101512.03;5033923;28;20140;-61
2022/07/31 03:00:36;;;;;;;4.97;3.53;;;;;;;18.84;nan;101509.31;5035079;28;20028;-61
2022/07/31 03:03:01;;;;;;;5.90;3.72;;;;;;;18.86;nan;101514.53;5035028;28;20042;-61
2022/07/31 03:05:27;;;;;;;5.15;3.50;;;;;;;18.52;nan;101459.56;5050441;28;20427;-61
2022/07/31 03:07:52;;;;;;;4.80;3.50;;;;;;;18.71;nan;101483.41;5035161;28;20072;-61
2022/07/31 03:10:17;;;;;;;4.15;3.35;;;;;;;18.64;nan;101466.88;5034763;28;20472;-62
2022/07/31 03:12:45;;;;;;;3.35;2.83;;;;;;;18.44;nan;101430.66;5033551;28;20033;-62
2022/07/31 03:15:14;;;;;;;3.97;2.78;;;;;;;18.62;nan;101454.59;5033578;28;20108;-63
2022/07/31 03:17:41;;;;;;;5.45;3.85;;;;;;;18.77;nan;101489.25;5034598;28;20075;-61
2022/07/31 03:20:07;;;;;;;7.63;3.35;;;;;;;18.73;nan;101481.50;5034904;28;20362;-61
2022/07/31 03:22:33;;;;;;;6.00;3.55;;;;;;;18.80;nan;101498.88;5034835;28;20048;-61
2022/07/31 03:25:00;;;;;;;6.10;3.20;;;;;;;18.82;nan;101505.00;5033474;28;20034;-61
2022/07/31 03:27:25;;;;;;;3.88;3.47;;;;;;;18.75;nan;101499.16;5034559;28;20037;-62
2022/07/31 03:29:50;;;;;;;4.15;3.25;;;;;;;18.81;nan;101503.28;5034275;28;20496;-61
2022/07/31 03:32:16;;;;;;;4.93;3.60;;;;;;;18.81;nan;101509.47;5034514;28;20469;-60
2022/07/31 03:34:41;;;;;;;5.68;3.90;;;;;;;18.82;nan;101503.22;5034650;28;20087;-60
2022/07/31 03:37:07;;;;;;;5.97;3.72;;;;;;;18.72;nan;101493.13;5034648;28;20045;-61
2022/07/31 03:39:32;;;;;;;3.72;3.42;;;;;;;18.76;nan;101494.69;5034417;28;20037;-59
2022/07/31 03:41:58;;;;;;;6.00;3.92;;;;;;;18.78;nan;101498.97;5034261;28;20038;-61
2022/07/31 03:44:25;;;;;;;5.00;4.30;;;;;;;18.77;nan;101509.72;5034222;28;20025;-62
2022/07/31 03:46:51;;;;;;;7.35;4.20;;;;;;;18.41;nan;101446.81;5033402;28;20032;-62
2022/07/31 03:49:17;;;;;;;6.43;4.80;;;;;;;18.34;nan;101423.22;5033277;28;20033;-61
2022/07/31 03:51:42;;;;;;;7.30;4.72;;;;;;;18.73;nan;101500.19;5032843;28;20048;-60
2022/07/31 03:54:08;;;;;;;7.18;4.82;;;;;;;18.62;nan;101481.25;5034221;28;20041;-61
2022/07/31 03:56:33;;;;;;;6.70;5.07;;;;;;;18.35;nan;101428.50;5034072;28;20040;-60
2022/07/31 03:58:58;;;;;;;6.28;4.82;;;;;;;18.68;nan;101491.59;5032958;28;20135;-61
2022/07/31 04:01:24;;;;;;;5.72;4.97;;;;;;;18.59;nan;101470.75;5033869;28;20060;-61
2022/07/31 04:03:57;;;;;;;6.47;5.50;;;;;;;18.65;nan;101481.91;5033334;28;20033;-61
2022/07/31 04:06:22;;;;;;;7.38;5.60;;;;;;;18.24;nan;101412.19;5033961;28;20358;-61
2022/07/31 04:08:47;;;;;;;9.27;6.53;;;;;;;18.60;nan;101486.66;5032832;28;20042;-61
2022/07/31 04:11:13;;;;;;;9.68;6.30;;;;;;;18.48;nan;101463.31;5033777;28;20184;-61
2022/07/31 04:13:39;;;;;;;9.32;5.80;;;;;;;18.22;nan;101435.41;5032747;28;20045;-61
2022/07/31 04:16:04;;;;;;;11.30;7.18;;;;;;;18.67;nan;101477.38;5034011;28;20037;-61
2022/07/31 04:18:29;;;;;;;8.90;7.72;;;;;;;17.72;nan;101328.97;5033844;28;20044;-61
2022/07/31 04:20:54;;;;;;;10.55;8.32;;;;;;;18.68;nan;101481.75;5032585;28;20045;-61
2022/07/31 04:23:20;;;;;;;9.20;7.15;;;;;;;18.67;nan;101474.72;5031875;28;20048;-61
2022/07/31 04:25:45;;;;;;;13.68;8.15;;;;;;;18.68;nan;101481.75;5033505;28;20044;-62
2022/07/31 04:28:10;;;;;;;11.57;8.25;;;;;;;18.68;nan;101467.59;5032028;28;20029;-60
2022/07/31 04:30:37;;;;;;;12.60;8.82;;;;;;;18.62;nan;101457.25;5033127;28;20029;-61
2022/07/31 04:33:02;;;;;;;16.60;9.10;;;;;;;18.72;nan;101466.44;5033478;28;20423;-60
2022/07/31 04:35:28;;;;;;;9.85;8.80;;;;;;;18.71;nan;101462.09;5048651;28;20489;-61
2022/07/31 04:37:53;;;;;;;13.05;9.77;;;;;;;18.72;nan;101464.66;5033236;28;20303;-62
2022/07/31 04:40:19;;;;;;;9.85;8.60;;;;;;;18.70;nan;101465.69;5033228;28;20142;-62
2022/07/31 04:42:44;;;;;;;10.75;8.90;;;;;;;18.67;nan;101449.84;5031802;28;20037;-63
2022/07/31 04:45:10;;;;;;;14.10;9.93;;;;;;;18.46;nan;101414.56;5032196;28;20532;-63
2022/07/31 04:47:36;;;;;;;12.15;9.43;;;;;;;18.74;nan;101462.75;5033381;28;20120;-61
2022/07/31 04:50:01;;;;;;;16.27;10.43;;;;;;;18.80;nan;101469.53;5033237;28;20033;-61
2022/07/31 04:52:26;;;;;;;14.95;9.63;;;;;;;18.81;nan;101458.78;5033327;28;20037;-61
2022/07/31 04:54:51;;;;;;;14.93;10.35;;;;;;;18.56;nan;101409.59;5033010;28;20041;-61
2022/07/31 04:57:17;;;;;;;14.13;10.05;;;;;;;18.85;nan;101471.03;5031608;28;20083;-61
2022/07/31 04:59:42;;;;;;;15.18;9.95;;;;;;;18.55;nan;101411.41;5032777;28;20045;-61
2022/07/31 05:02:07;;;;;;;13.50;10.27;;;;;;;18.88;nan;101462.84;5033021;28;20510;-60
2022/07/31 05:04:33;;;;;;;15.00;10.13;;;;;;;18.57;nan;101400.63;5032894;28;20493;-60
2022/07/31 05:06:58;;;;;;;19.55;10.45;;;;;;;18.85;nan;101444.34;5048253;28;20053;-61
2022/07/31 05:09:23;;;;;;;14.77;10.10;;;;;;;18.95;nan;101442.00;5032562;28;20476;-61
2022/07/31 05:11:50;;;;;;;13.18;10.43;;;;;;;18.61;nan;101389.75;5032595;28;20096;-63
2022/07/31 05:14:16;;;;;;;16.48;11.35;;;;;;;19.03;nan;101461.13;5032457;28;20121;-62
2022/07/31 05:16:42;;;;;;;16.73;11.55;;;;;;;19.03;nan;101445.09;5031476;28;20036;-61
2022/07/31 05:19:08;;;;;;;15.05;11.40;;;;;;;18.81;nan;101410.78;5032690;28;20038;-62
2022/07/31 05:21:33;;;;;;;18.92;11.63;;;;;;;19.09;nan;101444.72;5032786;28;20033;-62
2022/07/31 05:23:59;;;;;;;17.13;11.60;;;;;;;19.15;nan;101460.38;5032560;28;20155;-61
2022/07/31 05:26:26;;;;;;;17.60;11.48;;;;;;;18.87;nan;101402.44;5032349;28;20087;-61
2022/07/31 05:28:53;;;;;;;18.95;11.27;;;;;;;19.18;nan;101449.53;5032221;28;20049;-61
2022/07/31 05:31:19;;;;;;;21.02;12.35;;;;;;;19.19;nan;101453.06;5031224;28;20036;-62
2022/07/31 05:33:46;;;;;;;23.13;13.88;;;;;;;19.04;nan;101422.78;5032137;28;20481;-61
2022/07/31 05:36:12;;;;;;;19.17;13.82;;;;;;;19.21;nan;101457.34;5031843;28;20098;-61
2022/07/31 05:38:37;;;;;;;22.25;13.35;;;;;;;18.95;nan;101392.16;5031136;28;20520;-64
2022/07/31 05:41:02;;;;;;;21.27;13.98;;;;;;;18.91;nan;101387.94;5032247;28;20029;-60
2022/07/31 05:43:28;;;;;;;20.65;13.70;;;;;;;19.24;nan;101441.16;5032296;28;20048;-62
2022/07/31 05:45:53;;;;;;;20.92;12.93;;;;;;;19.29;nan;101444.44;5032496;28;20495;-62
2022/07/31 05:48:19;;;;;;;20.70;12.77;;;;;;;19.07;nan;101391.47;5030917;28;20112;-61
2022/07/31 05:50:46;;;;;;;19.48;13.02;;;;;;;19.13;nan;101386.69;5032537;28;20041;-61
2022/07/31 05:53:13;;;;;;;20.13;14.10;;;;;;;19.14;nan;101381.28;5047384;28;20033;-62
2022/07/31 05:55:40;;;;;;;21.38;14.10;;;;;;;19.11;nan;101370.78;5030823;28;20495;-60
2022/07/31 05:58:05;;;;;;;24.85;13.75;;;;;;;19.16;nan;101367.84;5032253;28;20112;-60
2022/07/31 06:00:30;;;;;;;19.98;13.02;;;;;;;19.54;nan;101428.72;5032303;28;20072;-60
2022/07/31 06:02:56;;;;;;;19.42;13.10;;;;;;;19.56;nan;101434.81;5032233;28;20025;-63
2022/07/31 06:05:22;;;;;;;25.20;14.77;;;;;;;19.61;nan;101423.88;5032133;28;20088;-62
2022/07/31 06:07:49;;;;;;;23.45;13.80;;;;;;;19.61;nan;101408.66;5032107;28;20087;-61
2022/07/31 06:10:14;;;;;;;25.60;14.05;;;;;;;19.53;nan;101400.28;5031837;28;20041;-61
2022/07/31 06:12:40;;;;;;;23.25;13.68;;;;;;;19.80;nan;101434.25;5031900;28;20080;-62
2022/07/31 06:15:05;;;;;;;21.83;14.30;;;;;;;19.87;nan;101446.31;5047401;28;20033;-60
2022/07/31 06:17:31;;;;;;;20.83;14.82;;;;;;;19.86;nan;101447.25;5031779;28;20036;-61
2022/07/31 06:19:56;;;;;;;21.52;14.70;;;;;;;19.87;nan;101439.16;5031753;28;20393;-61
2022/07/31 06:22:21;;;;;;;23.48;15.30;;;;;;;19.59;nan;101383.88;5030546;28;20040;-63
2022/07/31 06:24:47;;;;;;;26.90;15.88;;;;;;;19.55;nan;101378.84;5031826;28;20045;-60
2022/07/31 06:27:12;;;;;;;20.60;14.68;;;;;;;19.85;nan;101434.88;5031761;28;20100;-62
2022/07/31 06:29:37;;;;;;;25.85;16.52;;;;;;;19.76;nan;101420.22;5031925;28;20386;-61
2022/07/31 06:32:03;;;;;;;25.95;16.25;;;;;;;19.85;nan;101426.84;5031754;28;20034;-61
2022/07/31 06:34:28;;;;;;;21.52;15.43;;;;;;;19.91;nan;101426.44;5031900;28;20473;-61
2022/07/31 06:36:53;;;;;;;27.58;17.23;;;;;;;19.65;nan;101386.19;5047058;28;20098;-62
2022/07/31 06:39:19;;;;;;;23.25;16.35;;;;;;;19.54;nan;101361.94;5030721;28;20037;-60
2022/07/31 06:41:46;;;;;;;23.38;16.42;;;;;;;19.63;nan;101365.88;5031650;28;20041;-61
2022/07/31 06:44:12;;;;;;;27.20;18.52;;;;;;;19.77;nan;101383.69;5031886;28;20033;-61
2022/07/31 06:46:37;;;;;;;23.58;17.23;;;;;;;19.67;nan;101370.06;5033559;28;20528;-61
2022/07/31 06:49:02;;;;;;;21.55;16.67;;;;;;;20.07;nan;101429.91;5035548;28;20029;-61
2022/07/31 06:51:28;;;;;;;25.02;17.75;;;;;;;20.09;nan;101426.16;5035309;28;20095;-62
2022/07/31 06:53:53;;;;;;;26.95;18.27;;;;;;;19.98;nan;101390.38;5035265;28;20124;-61
2022/07/31 06:56:18;;;;;;;28.08;17.90;;;;;;;20.00;nan;101393.81;5035186;28;20043;-62
2022/07/31 06:58:44;;;;;;;23.80;18.10;;;;;;;20.20;nan;101420.13;5035177;28;20116;-64
2022/07/31 07:01:09;;;;;;;27.92;18.90;;;;;;;20.23;nan;101424.47;5033903;28;20428;-61
2022/07/31 07:03:35;;;;;;;24.58;18.77;;;;;;;20.22;nan;101436.97;5035173;28;20034;-61
2022/07/31 07:06:02;;;;;;;28.30;18.35;;;;;;;20.13;nan;101422.38;5035156;28;20138;-62
2022/07/31 07:08:27;;;;;;;25.67;17.00;;;;;;;20.20;nan;101449.53;5034967;28;20037;-62
2022/07/31 07:10:53;;;;;;;25.90;19.30;;;;;;;20.13;nan;101438.41;5034852;28;20370;-61
2022/07/31 07:13:18;;;;;;;24.02;18.40;;;;;;;20.03;nan;101425.69;5035154;28;20037;-62
2022/07/31 07:15:44;;;;;;;23.55;16.60;;;;;;;20.10;nan;101427.03;5050225;28;20080;-61
2022/07/31 07:18:09;;;;;;;23.17;16.42;;;;;;;19.79;nan;101382.66;5034983;28;20092;-61
2022/07/31 07:20:34;;;;;;;21.73;17.63;;;;;;;20.09;nan;101430.66;5033669;28;20037;-60
2022/07/31 07:23:03;;;;;;;22.95;18.33;;;;;;;20.07;nan;101428.09;5035034;28;20037;-61
2022/07/31 07:25:28;;;;;;;25.02;19.67;;;;;;;20.09;nan;101422.63;5034492;28;20049;-62
2022/07/31 07:27:57;;;;;;;30.42;20.25;;;;;;;20.09;nan;101423.50;5034759;28;20039;-61
2022/07/31 07:30:27;;;;;;;27.35;19.63;;;;;;;20.05;nan;101421.13;5033888;28;20412;-60
2022/07/31 07:32:52;;;;;;;30.90;22.17;;;;;;;20.02;nan;101413.31;5034642;28;20401;-59
2022/07/31 07:35:17;;;;;;;26.38;21.83;;;;;;;19.63;nan;101361.38;5049885;28;20026;-60
2022/07/31 07:37:43;;;;;;;28.88;22.40;;;;;;;19.85;nan;101419.66;5034384;28;20038;-60
2022/07/31 07:40:08;;;;;;;29.98;23.00;;;;;;;19.81;nan;101414.63;5034304;28;20037;-59
2022/07/31 07:42:34;;;;;;;31.13;24.55;;;;;;;19.78;nan;101405.00;5034400;28;20041;-60
2022/07/31 07:45:00;;;;;;;28.77;24.00;;;;;;;19.50;nan;101362.22;5034638;28;20037;-61
2022/07/31 07:47:25;;;;;;;28.70;24.40;;;;;;;19.68;nan;101382.47;5034320;28;20029;-60
2022/07/31 07:49:50;;;;;;;30.67;23.88;;;;;;;19.90;nan;101398.88;5032970;28;20124;-60
2022/07/31 07:52:16;;;;;;;28.23;23.77;;;;;;;20.05;nan;101407.75;5032728;28;20077;-60
2022/07/31 07:54:42;;;;;;;26.83;23.90;;;;;;;19.77;nan;101336.47;5033814;28;20136;-61
2022/07/31 07:57:08;;;;;;;29.25;23.42;;;;;;;20.19;nan;101402.41;5016121;28;20044;-59
2022/07/31 07:59:34;;;;;;;26.00;22.90;;;;;;;20.05;nan;101373.03;5032254;28;20535;-60
2022/07/31 08:01:59;;;;;;;30.48;22.70;;;;;;;19.85;nan;101362.72;5034181;28;20037;-59
2022/07/31 08:04:25;;;;;;;25.15;21.40;;;;;;;20.09;nan;101410.13;5032848;28;20025;-60
2022/07/31 08:06:50;;;;;;;28.48;21.10;;;;;;;20.09;nan;101404.78;5033842;28;20061;-59
2022/07/31 08:09:15;;;;;;;24.35;21.33;;;;;;;20.14;nan;101407.16;5033654;28;20029;-60
2022/07/31 08:11:41;;;;;;;23.85;20.65;;;;;;;20.07;nan;101388.00;5033530;28;20037;-60
2022/07/31 08:14:06;;;;;;;25.38;20.75;;;;;;;20.19;nan;101392.56;5034011;28;20124;-60
2022/07/31 08:16:31;;;;;;;25.02;20.10;;;;;;;20.38;nan;101400.28;5033902;28;20555;-60
2022/07/31 08:18:57;;;;;;;23.55;18.95;;;;;;;20.41;nan;101393.88;5033936;28;20065;-61
2022/07/31 08:21:22;;;;;;;21.63;18.30;;;;;;;20.23;nan;101361.13;5033694;28;20433;-59
2022/07/31 08:23:48;;;;;;;20.10;17.55;;;;;;;20.50;nan;101386.13;5032188;28;20528;-61
2022/07/31 08:26:13;;;;;;;23.17;18.20;;;;;;;20.24;nan;101328.09;5033798;28;20040;-60
2022/07/31 08:28:38;;;;;;;22.25;17.80;;;;;;;20.42;nan;101347.47;5033354;28;20034;-60
2022/07/31 08:31:04;;;;;;;21.30;18.63;;;;;;;20.77;nan;101388.81;5033406;28;20473;-59
2022/07/31 08:33:31;;;;;;;22.38;17.65;;;;;;;20.57;nan;101360.72;5033446;28;20033;-60
2022/07/31 08:35:57;;;;;;;19.50;17.40;;;;;;;20.63;nan;101394.22;5033222;28;20033;-60
2022/07/31 08:38:22;;;;;;;20.90;17.88;;;;;;;20.68;nan;101397.44;5015551;28;20044;-61
2022/07/31 08:40:47;;;;;;;19.50;17.40;;;;;;;20.67;nan;101401.94;5033446;28;20374;-60
2022/07/31 08:43:13;;;;;;;21.50;17.85;;;;;;;20.40;nan;101338.72;5032073;28;20030;-59
2022/07/31 08:45:42;;;;;;;20.13;18.05;;;;;;;20.73;nan;101400.69;5032073;28;20069;-61
2022/07/31 08:48:08;;;;;;;21.33;17.38;;;;;;;20.69;nan;101402.69;5031966;28;20056;-59
2022/07/31 08:50:35;;;;;;;19.45;17.23;;;;;;;20.56;nan;101380.38;5032968;28;20041;-60
2022/07/31 08:53:01;;;;;;;17.88;16.00;;;;;;;20.44;nan;101380.31;5031774;28;20500;-59
2022/07/31 08:55:28;;;;;;;21.55;17.83;;;;;;;20.42;nan;101393.81;5033116;28;20378;-60
2022/07/31 08:57:54;;;;;;;20.88;17.48;;;;;;;20.27;nan;101362.69;5031912;28;20071;-60
2022/07/31 09:00:21;;;;;;;20.90;18.50;;;;;;;20.46;nan;101416.69;5031649;28;20068;-61
2022/07/31 09:02:47;;;;;;;26.92;19.70;;;;;;;20.00;nan;101341.22;5031628;28;20030;-60
2022/07/31 09:05:12;;;;;;;21.65;19.35;;;;;;;20.39;nan;101402.03;5032663;28;20373;-60
2022/07/31 09:07:37;;;;;;;24.30;21.75;;;;;;;20.33;nan;101412.25;5032579;28;20033;-61
2022/07/31 09:10:27;;;;;;;25.42;22.90;;;;;;;20.25;nan;101387.78;5032587;28;20037;-61
2022/07/31 09:12:53;;;;;;;25.73;21.95;;;;;;;20.35;nan;101394.28;5032292;28;20503;-60
2022/07/31 09:15:28;;;;;;;27.58;23.75;;;;;;;20.01;nan;101342.09;5032717;28;20489;-61
2022/07/31 09:17:54;;;;;;;33.85;26.85;;;;;;;20.24;nan;101376.22;5032543;28;20060;-61
2022/07/31 09:20:21;;;;;;;28.88;24.48;;;;;;;20.10;nan;101341.50;5031187;28;20524;-58
2022/07/31 09:22:47;;;;;;;30.38;26.02;;;;;;;20.33;nan;101397.06;5031157;28;20041;-60
2022/07/31 09:25:17;;;;;;;34.08;26.98;;;;;;;20.28;nan;101392.97;5032793;28;20033;-59
2022/07/31 09:27:43;;;;;;;32.85;28.88;;;;;;;20.17;nan;101383.78;5032380;28;20544;-60
2022/07/31 09:30:09;;;;;;;31.48;27.92;;;;;;;20.21;nan;101392.47;5030968;28;20128;-60
2022/07/31 09:32:34;;;;;;;38.83;26.50;;;;;;;20.05;nan;101383.72;5032230;28;20644;-59
2022/07/31 09:35:07;;;;;;;32.13;27.27;;;;;;;19.77;nan;101322.25;5032913;28;20048;-60
2022/07/31 09:37:33;;;;;;;32.10;27.30;;;;;;;20.11;nan;101400.19;5032467;28;20029;-57
2022/07/31 09:39:58;;;;;;;33.42;29.33;;;;;;;20.07;nan;101393.34;5031241;28;20120;-61
2022/07/31 09:42:37;;;;;;;29.73;26.48;;;;;;;20.06;nan;101402.31;5031013;28;20030;-61
2022/07/31 09:45:03;;;;;;;33.92;27.63;;;;;;;20.01;nan;101400.88;5031051;28;20033;-60
2022/07/31 09:47:30;;;;;;;33.67;26.42;;;;;;;19.98;nan;101390.38;5030859;28;20087;-59
2022/07/31 09:50:00;;;;;;;30.17;26.63;;;;;;;19.96;nan;101398.50;5032377;28;20037;-60
2022/07/31 09:52:28;;;;;;;27.83;24.85;;;;;;;19.92;nan;101396.09;5032102;28;20044;-58
2022/07/31 09:55:07;;;;;;;27.88;25.10;;;;;;;19.83;nan;101373.50;5031836;28;20028;-60
2022/07/31 09:57:34;;;;;;;28.02;25.13;;;;;;;19.91;nan;101395.25;5031841;28;20048;-61
2022/07/31 10:00:00;;;;;;;28.08;25.15;;;;;;;19.62;nan;101342.78;5032156;28;20123;-60
2022/07/31 10:02:26;;;;;;;29.70;25.60;;;;;;;19.87;nan;101391.06;5032090;28;20069;-60
2022/07/31 10:04:53;;;;;;;28.17;25.25;;;;;;;19.94;nan;101391.53;5032253;28;20041;-60
2022/07/31 10:07:18;;;;;;;27.15;24.00;;;;;;;19.96;nan;101401.19;5031891;28;20038;-60
2022/07/31 10:09:44;;;;;;;30.00;22.88;;;;;;;19.72;nan;101359.09;5032003;28;20473;-63
2022/07/31 10:12:12;;;;;;;23.70;21.10;;;;;;;19.60;nan;101336.69;5031871;28;20056;-60
2022/07/31 10:14:40;;;;;;;23.65;19.20;;;;;;;19.64;nan;101360.41;5031942;28;20479;-61
2022/07/31 10:17:06;;;;;;;20.08;17.02;;;;;;;19.93;nan;101401.38;5030927;28;20037;-60
2022/07/31 10:19:34;;;;;;;18.75;15.25;;;;;;;19.85;nan;101382.25;5014025;28;20034;-60
2022/07/31 10:22:02;;;;;;;15.80;11.93;;;;;;;19.93;nan;101397.84;5032877;28;20037;-60
2022/07/31 10:24:31;;;;;;;17.95;11.82;;;;;;;19.62;nan;101332.94;5050864;28;20037;-61
2022/07/31 10:26:57;;;;;;;15.70;11.95;;;;;;;19.76;nan;101340.09;5035928;28;20033;-60
2022/07/31 10:29:23;;;;;;;18.25;11.65;;;;;;;19.76;nan;101326.75;5051064;28;20052;-60
2022/07/31 10:31:48;;;;;;;16.88;10.27;;;;;;;20.13;nan;101405.47;5034500;28;20034;-60
2022/07/31 10:34:14;;;;;;;18.08;9.63;;;;;;;20.16;nan;101394.56;5034562;28;20038;-60
2022/07/31 10:36:43;;;;;;;16.17;9.18;;;;;;;20.15;nan;101390.19;5035561;28;20269;-60
2022/07/31 10:39:17;;;;;;;11.43;7.65;;;;;;;19.70;nan;101328.97;5034160;28;20030;-61
2022/07/31 10:41:56;;;;;;;11.13;6.63;;;;;;;19.80;nan;101332.75;5034285;28;20029;-61
2022/07/31 10:44:35;;;;;;;11.00;6.35;;;;;;;20.11;nan;101396.69;5035499;28;20083;-60
2022/07/31 10:47:17;;;;;;;9.07;6.18;;;;;;;20.12;nan;101369.84;5034296;28;20033;-60
2022/07/31 10:49:48;;;;;;;10.43;5.75;;;;;;;20.02;nan;101333.97;5035314;28;20040;-61
2022/07/31 10:52:24;;;;;;;9.35;5.75;;;;;;;20.22;nan;101364.78;5050566;28;20060;-60
2022/07/31 10:54:50;;;;;;;13.25;5.95;;;;;;;20.53;nan;101383.25;5035369;28;20132;-61
2022/07/31 10:57:23;;;;;;;9.73;5.28;;;;;;;20.74;nan;101372.97;5034101;28;20109;-60
2022/07/31 10:59:49;;;;;;;9.20;4.53;;;;;;;20.71;nan;101375.84;5034001;28;20060;-61
2022/07/31 11:02:32;;;;;;;10.30;5.55;;;;;;;20.74;nan;101371.16;5050374;28;20033;-62
2022/07/31 11:05:07;;;;;;;8.75;4.60;;;;;;;20.73;nan;101385.50;5034201;28;20103;-61
2022/07/31 11:07:32;;;;;;;6.28;5.38;;;;;;;20.58;nan;101333.00;5033026;28;20034;-60
2022/07/31 11:10:28;;;;;;;10.18;5.50;;;;;;;21.03;nan;101382.59;5034011;28;20033;-60
2022/07/31 11:13:07;;;;;;;10.15;5.30;;;;;;;21.10;nan;101386.59;5032898;28;20550;-61
2022/07/31 11:15:33;;;;;;;11.68;5.40;;;;;;;21.14;nan;101380.09;5032825;28;20029;-59
2022/07/31 11:18:10;;;;;;;9.95;5.88;;;;;;;21.12;nan;101381.16;5033835;28;20396;-60
2022/07/31 11:20:36;;;;;;;11.25;6.05;;;;;;;21.03;nan;101377.25;5033850;28;20034;-59
2022/07/31 11:23:06;;;;;;;7.85;5.90;;;;;;;20.59;nan;101325.84;5032960;28;20103;-57
2022/07/31 11:25:34;;;;;;;11.05;6.55;;;;;;;20.82;nan;101372.44;5033705;28;20040;-60
2022/07/31 11:28:23;;;;;;;12.40;6.85;;;;;;;20.44;nan;101325.03;5034761;28;20038;-61
2022/07/31 11:30:50;;;;;;;11.63;6.43;;;;;;;20.70;nan;101388.38;5034192;28;20563;-61